createdAt,value
2022-12-23T00:00:27.876Z,6.97
2022-12-23T00:02:54.582Z,8.05
2022-12-23T00:05:21.335Z,7.60
2022-12-23T00:07:47.994Z,7.45
2022-12-23T00:10:14.585Z,7.68
2022-12-23T00:12:59.641Z,7.68
2022-12-23T00:15:26.222Z,7.18
2022-12-23T00:17:54.402Z,7.22
2022-12-23T00:20:20.933Z,7.35
2022-12-23T00:23:05.873Z,6.22
2022-12-23T00:25:41.092Z,7.35
2022-12-23T00:28:13.706Z,6.53
2022-12-23T00:31:14.000Z,7.50
2022-12-23T00:33:43.482Z,7.10
2022-12-23T00:36:27.993Z,6.72
2022-12-23T00:39:14.457Z,7.80
2022-12-23T00:41:59.709Z,7.75
2022-12-23T00:44:26.731Z,7.47
2022-12-23T00:46:53.957Z,7.75
2022-12-23T00:49:39.883Z,9.63
2022-12-23T00:52:11.565Z,8.05
2022-12-23T00:54:38.049Z,8.48
2022-12-23T00:57:05.086Z,9.00
2022-12-23T00:59:32.030Z,8.35
2022-12-23T01:02:17.522Z,9.20
2022-12-23T01:05:02.899Z,8.50
2022-12-23T01:07:29.554Z,9.13
2022-12-23T01:09:56.178Z,9.02
2022-12-23T01:12:22.820Z,10.15
2022-12-23T01:14:49.611Z,9.63
2022-12-23T01:17:16.435Z,8.95
2022-12-23T01:19:42.997Z,9.02
2022-12-23T01:22:09.851Z,8.15
2022-12-23T01:24:39.218Z,9.15
2022-12-23T01:27:05.740Z,9.07
2022-12-23T01:29:32.426Z,8.90
2022-12-23T01:31:58.974Z,9.13
2022-12-23T01:34:29.706Z,8.73
2022-12-23T01:37:01.388Z,9.80
2022-12-23T01:39:30.205Z,8.77
2022-12-23T01:42:15.558Z,9.52
2022-12-23T01:44:55.820Z,8.90
2022-12-23T01:48:02.591Z,10.00
2022-12-23T01:50:47.902Z,10.35
2022-12-23T01:53:33.155Z,10.13
2022-12-23T01:56:02.831Z,11.75
2022-12-23T01:58:42.135Z,12.38
2022-12-23T02:01:27.970Z,12.18
2022-12-23T02:03:58.818Z,12.32
2022-12-23T02:07:03.935Z,13.65
2022-12-23T02:09:33.331Z,13.18
2022-12-23T02:12:02.850Z,13.18
2022-12-23T02:14:59.588Z,13.00
2022-12-23T02:17:36.777Z,14.05
2022-12-23T02:20:25.260Z,15.60
2022-12-23T02:23:07.271Z,15.70
2022-12-23T02:26:08.042Z,16.42
2022-12-23T02:28:37.545Z,17.33
2022-12-23T02:31:23.481Z,18.92
2022-12-23T02:34:10.453Z,16.17
2022-12-23T02:37:01.049Z,18.15
2022-12-23T02:39:42.348Z,17.88
2022-12-23T02:42:16.726Z,18.83
2022-12-23T02:45:13.676Z,18.48
2022-12-23T02:47:53.902Z,19.45
2022-12-23T02:50:27.681Z,17.85
2022-12-23T02:52:58.619Z,18.27
2022-12-23T02:55:29.945Z,19.67
2022-12-23T02:57:59.645Z,18.38
2022-12-23T03:00:26.731Z,20.15
2022-12-23T03:02:53.909Z,20.85
2022-12-23T03:05:27.638Z,20.70
2022-12-23T03:07:59.697Z,17.38
2022-12-23T03:10:38.027Z,19.63
2022-12-23T03:13:19.769Z,18.92
2022-12-23T03:16:14.414Z,19.05
2022-12-23T03:19:19.651Z,19.23
2022-12-23T03:21:59.995Z,19.80
2022-12-23T03:24:40.714Z,21.13
2022-12-23T03:27:28.238Z,20.05
2022-12-23T03:29:57.609Z,18.80
2022-12-23T03:32:27.764Z,18.63
2022-12-23T03:34:58.828Z,18.70
2022-12-23T03:37:27.811Z,18.05
2022-12-23T03:40:10.428Z,17.75
2022-12-23T03:42:40.737Z,17.55
2022-12-23T03:48:11.150Z,17.73
2022-12-23T03:50:39.679Z,16.58
2022-12-23T03:53:21.801Z,15.98
2022-12-23T03:55:54.255Z,14.55
2022-12-23T03:58:51.002Z,16.98
2022-12-23T04:01:42.075Z,15.30
2022-12-23T04:04:30.342Z,15.02
2022-12-23T04:07:05.170Z,15.65
2022-12-23T04:09:31.863Z,14.98
2022-12-23T04:11:59.056Z,14.32
2022-12-23T04:14:25.608Z,15.43
2022-12-23T04:16:55.826Z,15.27
2022-12-23T04:19:22.974Z,15.05
2022-12-23T04:21:49.854Z,14.00
2022-12-23T04:24:16.536Z,13.73
2022-12-23T04:26:43.944Z,14.85
2022-12-23T04:29:10.588Z,12.73
2022-12-23T04:31:39.503Z,13.10
2022-12-23T04:34:06.121Z,14.10
2022-12-23T04:36:33.339Z,14.32
2022-12-23T04:39:00.010Z,13.25
2022-12-23T04:41:26.559Z,13.57
2022-12-23T04:43:53.632Z,15.90
2022-12-23T04:46:21.838Z,14.98
2022-12-23T04:48:48.426Z,14.80
2022-12-23T04:51:15.045Z,13.70
2022-12-23T04:53:41.691Z,12.30
2022-12-23T04:56:08.232Z,13.13
2022-12-23T04:58:34.843Z,13.35
2022-12-23T05:01:06.367Z,14.07
2022-12-23T05:03:35.081Z,13.48
2022-12-23T05:06:01.923Z,13.68
2022-12-23T05:08:28.832Z,12.10
2022-12-23T05:10:56.175Z,14.10
2022-12-23T05:13:22.980Z,13.38
2022-12-23T05:15:50.989Z,14.05
2022-12-23T05:18:17.720Z,12.95
2022-12-23T05:20:44.624Z,13.75
2022-12-23T05:23:11.548Z,11.80
2022-12-23T05:25:39.520Z,13.10
2022-12-23T05:28:10.967Z,10.98
2022-12-23T05:30:38.606Z,11.85
2022-12-23T05:33:05.195Z,13.57
2022-12-23T05:35:31.908Z,11.95
2022-12-23T05:37:58.389Z,13.43
2022-12-23T05:40:27.836Z,12.15
2022-12-23T05:42:58.171Z,13.23
2022-12-23T05:45:24.921Z,13.45
2022-12-23T05:47:51.675Z,13.43
2022-12-23T05:50:18.665Z,11.45
2022-12-23T05:52:45.140Z,14.02
2022-12-23T05:55:11.768Z,12.15
2022-12-23T05:57:38.678Z,12.48
2022-12-23T06:00:08.451Z,12.32
2022-12-23T06:02:35.376Z,12.20
2022-12-23T06:05:02.208Z,11.05
2022-12-23T06:07:28.749Z,13.10
2022-12-23T06:09:55.818Z,13.55
2022-12-23T06:12:25.442Z,13.07
2022-12-23T06:14:53.284Z,13.27
2022-12-23T06:17:19.925Z,13.20
2022-12-23T06:19:47.455Z,11.63
2022-12-23T06:22:14.429Z,11.07
2022-12-23T06:24:41.407Z,11.50
2022-12-23T06:27:07.881Z,11.77
2022-12-23T06:29:34.431Z,11.20
2022-12-23T06:32:06.375Z,12.15
2022-12-23T06:35:00.196Z,12.93
2022-12-23T06:37:27.005Z,12.43
2022-12-23T06:39:53.885Z,12.00
2022-12-23T06:42:22.759Z,13.23
2022-12-23T06:44:49.497Z,12.23
2022-12-23T06:47:16.015Z,11.73
2022-12-23T06:49:42.556Z,11.13
2022-12-23T06:52:10.182Z,11.75
2022-12-23T06:54:37.001Z,10.40
2022-12-23T06:57:06.523Z,9.75
2022-12-23T06:59:33.226Z,11.15
2022-12-23T07:01:59.813Z,11.07
2022-12-23T07:04:26.477Z,10.55
2022-12-23T07:06:54.176Z,11.32
2022-12-23T07:09:23.712Z,10.30
2022-12-23T07:11:50.361Z,12.68
2022-12-23T07:14:17.593Z,11.60
2022-12-23T07:16:45.216Z,12.88
2022-12-23T07:19:12.034Z,11.48
2022-12-23T07:22:35.246Z,12.02
2022-12-23T07:25:05.405Z,10.40
2022-12-23T07:27:32.155Z,11.70
2022-12-23T07:29:58.778Z,11.70
2022-12-23T07:32:25.422Z,11.65
2022-12-23T07:34:52.522Z,9.70
2022-12-23T07:37:21.387Z,11.73
2022-12-23T07:39:48.115Z,11.13
2022-12-23T07:45:01.765Z,10.20
2022-12-23T07:47:28.316Z,9.00
2022-12-23T07:49:54.972Z,9.93
2022-12-23T07:52:23.877Z,13.10
2022-12-23T07:54:55.085Z,11.38
2022-12-23T07:57:21.868Z,11.20
2022-12-23T07:59:48.446Z,11.07
2022-12-23T08:02:15.198Z,11.77
2022-12-23T08:04:46.012Z,10.95
2022-12-23T08:07:13.431Z,11.85
2022-12-23T08:09:40.060Z,8.57
2022-12-23T08:12:06.880Z,10.52
2022-12-23T08:14:34.865Z,10.90
2022-12-23T08:17:02.003Z,11.25
2022-12-23T08:19:28.613Z,11.57
2022-12-23T08:21:55.062Z,10.93
2022-12-23T08:24:21.594Z,11.48
2022-12-23T08:26:48.114Z,11.68
2022-12-23T08:29:14.705Z,9.98
2022-12-23T08:31:41.194Z,11.15
2022-12-23T08:34:08.253Z,10.98
2022-12-23T08:36:36.325Z,10.07
2022-12-23T08:39:09.692Z,11.38
2022-12-23T08:41:40.072Z,11.50
2022-12-23T08:44:06.927Z,11.70
2022-12-23T08:46:34.373Z,13.00
2022-12-23T08:49:01.071Z,14.18
2022-12-23T08:51:27.918Z,12.73
2022-12-23T08:54:00.410Z,12.25
2022-12-23T08:56:30.896Z,12.75
2022-12-23T08:58:57.611Z,13.27
2022-12-23T09:01:27.425Z,15.57
2022-12-23T09:03:54.962Z,15.23
2022-12-23T09:06:29.849Z,14.18
2022-12-23T09:08:57.236Z,14.10
2022-12-23T09:11:25.888Z,16.83
2022-12-23T09:13:52.919Z,14.85
2022-12-23T09:16:19.759Z,17.25
2022-12-23T09:18:46.481Z,14.50
2022-12-23T09:21:15.746Z,15.45
2022-12-23T09:23:43.089Z,16.38
2022-12-23T09:26:10.794Z,15.15
2022-12-23T09:28:37.718Z,16.48
2022-12-23T09:31:09.278Z,15.07
2022-12-23T09:33:36.333Z,15.23
2022-12-23T09:36:03.887Z,14.82
2022-12-23T09:38:31.117Z,15.13
2022-12-23T09:41:15.165Z,17.95
2022-12-23T09:44:03.507Z,17.17
2022-12-23T09:46:34.021Z,17.63
2022-12-23T09:49:05.364Z,16.63
2022-12-23T09:51:33.284Z,17.77
2022-12-23T09:54:16.910Z,17.38
2022-12-23T09:56:52.052Z,16.17
2022-12-23T09:59:47.828Z,16.85
2022-12-23T10:02:30.660Z,14.50
2022-12-23T10:05:39.005Z,15.13
2022-12-23T10:08:27.624Z,14.45
2022-12-23T10:11:00.248Z,14.45
2022-12-23T10:13:36.643Z,13.13
2022-12-23T10:16:09.675Z,13.65
2022-12-23T10:18:56.977Z,14.25
2022-12-23T10:21:47.601Z,12.63
2022-12-23T10:24:22.916Z,12.07
2022-12-23T10:27:16.763Z,11.88
2022-12-23T10:29:43.374Z,12.55
2022-12-23T10:32:37.461Z,13.77
2022-12-23T10:35:16.003Z,11.60
2022-12-23T10:37:52.429Z,11.75
2022-12-23T10:40:27.992Z,11.82
2022-12-23T10:43:22.833Z,11.10
2022-12-23T10:46:07.763Z,13.52
2022-12-23T10:48:53.852Z,12.82
2022-12-23T10:51:28.330Z,12.75
2022-12-23T10:54:13.995Z,12.35
2022-12-23T10:56:40.691Z,12.38
2022-12-23T10:59:12.091Z,11.57
2022-12-23T11:01:40.244Z,12.88
2022-12-23T11:04:17.135Z,10.48
2022-12-23T11:06:52.833Z,11.65
2022-12-23T11:09:35.803Z,11.32
2022-12-23T11:12:06.397Z,11.77
2022-12-23T11:14:39.294Z,11.32
2022-12-23T11:17:18.714Z,11.63
2022-12-23T11:19:45.482Z,11.60
2022-12-23T11:22:22.816Z,12.63
2022-12-23T11:24:51.210Z,10.85
2022-12-23T11:27:18.202Z,10.82
2022-12-23T11:29:51.660Z,9.48
2022-12-23T11:32:23.971Z,9.80
2022-12-23T11:34:51.456Z,11.07
2022-12-23T11:37:44.002Z,9.88
2022-12-23T11:40:31.070Z,10.07
2022-12-23T11:43:14.536Z,11.43
2022-12-23T11:45:43.874Z,11.07
2022-12-23T11:48:30.366Z,10.13
2022-12-23T11:51:02.565Z,10.73
2022-12-23T11:53:29.528Z,11.48
2022-12-23T11:56:08.904Z,11.07
2022-12-23T11:58:46.660Z,12.43
2022-12-23T12:01:25.395Z,10.07
2022-12-23T12:03:59.365Z,10.05
2022-12-23T12:06:27.798Z,11.15
2022-12-23T12:08:57.822Z,9.85
2022-12-23T12:11:35.226Z,9.45
2022-12-23T12:14:05.085Z,9.18
2022-12-23T12:16:48.521Z,8.75
2022-12-23T12:19:28.619Z,8.43
2022-12-23T12:22:00.755Z,8.70
2022-12-23T12:24:38.333Z,7.57
2022-12-23T12:27:07.204Z,9.10
2022-12-23T12:29:39.242Z,8.35
2022-12-23T12:32:15.724Z,7.95
2022-12-23T12:35:02.758Z,7.55
2022-12-23T12:37:55.289Z,7.78
2022-12-23T12:40:33.947Z,7.07
2022-12-23T12:43:23.426Z,8.88
2022-12-23T12:46:13.770Z,7.68
2022-12-23T12:48:59.737Z,8.45
2022-12-23T12:51:43.279Z,6.82
2022-12-23T12:54:14.628Z,6.60
2022-12-23T12:56:47.906Z,7.35
2022-12-23T12:59:36.184Z,8.70
2022-12-23T13:02:27.257Z,7.72
2022-12-23T13:05:12.181Z,7.72
2022-12-23T13:08:19.266Z,7.88
2022-12-23T13:10:59.593Z,7.93
2022-12-23T13:14:09.065Z,7.03
2022-12-23T13:16:56.219Z,6.85
2022-12-23T13:19:36.559Z,6.82
2022-12-23T13:24:56.579Z,8.35
2022-12-23T13:27:44.169Z,7.47
2022-12-23T13:30:13.923Z,8.10
2022-12-23T13:33:06.784Z,8.60
2022-12-23T13:36:02.982Z,9.02
2022-12-23T13:39:04.201Z,9.27
2022-12-23T13:41:47.003Z,10.63
2022-12-23T13:44:15.186Z,11.00
2022-12-23T13:47:05.998Z,11.00
2022-12-23T13:49:39.986Z,11.20
2022-12-23T13:52:06.373Z,9.73
2022-12-23T13:54:49.834Z,10.65
2022-12-23T13:57:28.684Z,10.55
2022-12-23T14:00:25.441Z,10.50
2022-12-23T14:02:52.053Z,9.32
2022-12-23T14:05:38.842Z,11.23
2022-12-23T14:08:23.845Z,11.48
2022-12-23T14:11:02.472Z,10.75
2022-12-23T14:13:37.938Z,10.60
2022-12-23T14:16:28.925Z,12.00
2022-12-23T14:19:19.775Z,11.57
2022-12-23T14:21:49.261Z,12.13
2022-12-23T14:24:27.923Z,11.32
2022-12-23T14:26:55.730Z,11.98
2022-12-23T14:29:28.753Z,12.18
2022-12-23T14:31:57.707Z,11.88
2022-12-23T14:34:32.770Z,11.27
2022-12-23T14:37:21.200Z,10.70
2022-12-23T14:39:49.307Z,12.82
2022-12-23T14:42:39.894Z,11.88
2022-12-23T14:45:24.603Z,11.18
2022-12-23T14:47:51.259Z,11.82
2022-12-23T14:50:33.248Z,10.68
2022-12-23T14:53:33.400Z,10.90
2022-12-23T14:56:26.120Z,11.68
2022-12-23T15:02:00.797Z,12.02
2022-12-23T15:04:40.553Z,10.27
2022-12-23T15:07:31.822Z,12.90
2022-12-23T15:10:01.509Z,12.02
2022-12-23T15:12:34.930Z,12.43
2022-12-23T15:15:16.767Z,11.90
2022-12-23T15:17:43.870Z,11.27
2022-12-23T15:20:10.406Z,11.63
2022-12-23T15:22:38.428Z,12.77
2022-12-23T15:25:06.256Z,12.43
2022-12-23T15:27:36.139Z,11.43
2022-12-23T15:30:03.356Z,11.43
2022-12-23T15:32:30.212Z,12.13
2022-12-23T15:35:05.925Z,13.32
2022-12-23T15:37:33.322Z,12.63
2022-12-23T15:40:07.867Z,13.73
2022-12-23T15:42:39.000Z,11.82
2022-12-23T15:45:34.746Z,12.00
2022-12-23T15:48:02.935Z,12.65
2022-12-23T15:50:30.320Z,14.25
2022-12-23T15:53:05.281Z,12.30
2022-12-23T15:55:34.326Z,12.48
2022-12-23T15:58:02.845Z,12.05
2022-12-23T16:00:57.641Z,14.15
2022-12-23T16:03:40.066Z,14.10
2022-12-23T16:06:20.055Z,12.82
2022-12-23T16:08:59.852Z,12.55
2022-12-23T16:11:56.684Z,13.55
2022-12-23T16:14:37.433Z,11.90
2022-12-23T16:17:10.001Z,12.20
2022-12-23T16:19:36.485Z,13.23
2022-12-23T16:22:26.298Z,12.15
2022-12-23T16:25:11.572Z,11.35
2022-12-23T16:27:47.090Z,11.77
2022-12-23T16:30:21.494Z,10.82
2022-12-23T16:35:28.291Z,10.73
2022-12-23T16:38:16.084Z,11.63
2022-12-23T16:40:44.671Z,11.50
2022-12-23T16:43:11.611Z,11.43
2022-12-23T16:45:39.186Z,10.70
2022-12-23T16:48:19.655Z,11.70
2022-12-23T16:53:14.065Z,9.20
2022-12-23T16:55:46.200Z,10.40
2022-12-23T16:58:16.961Z,9.82
2022-12-23T17:00:43.558Z,11.60
2022-12-23T17:03:16.321Z,10.60
2022-12-23T17:05:43.807Z,9.40
2022-12-23T17:08:10.585Z,10.30
2022-12-23T17:10:39.711Z,11.15
2022-12-23T17:13:06.277Z,12.48
2022-12-23T17:15:32.822Z,11.43
2022-12-23T17:17:59.276Z,10.57
2022-12-23T17:20:26.016Z,10.85
2022-12-23T17:22:58.055Z,10.88
2022-12-23T17:25:26.664Z,10.95
2022-12-23T17:27:53.688Z,10.38
2022-12-23T17:30:22.979Z,9.13
2022-12-23T17:32:59.958Z,9.63
2022-12-23T17:35:27.005Z,9.77
2022-12-23T17:37:53.592Z,8.35
2022-12-23T17:40:20.568Z,8.77
2022-12-23T17:42:47.806Z,7.57
2022-12-23T17:45:26.437Z,8.18
2022-12-23T17:47:53.019Z,8.07
2022-12-23T17:50:20.161Z,6.88
2022-12-23T17:52:50.824Z,7.43
2022-12-23T17:55:23.668Z,6.32
2022-12-23T17:57:51.760Z,6.05
2022-12-23T18:00:28.018Z,5.45
2022-12-23T18:03:03.501Z,6.38
2022-12-23T18:05:35.061Z,4.90
2022-12-23T18:08:03.033Z,5.53
2022-12-23T18:10:39.090Z,4.47
2022-12-23T18:13:15.392Z,4.47
2022-12-23T18:15:45.538Z,5.35
2022-12-23T18:18:23.925Z,5.47
2022-12-23T18:20:54.690Z,6.05
2022-12-23T18:23:25.008Z,5.05
2022-12-23T18:25:51.717Z,5.65
2022-12-23T18:28:18.366Z,6.28
2022-12-23T18:30:45.507Z,6.28
2022-12-23T18:33:13.093Z,7.78
2022-12-23T18:35:44.754Z,7.28
2022-12-23T18:38:12.091Z,10.63
2022-12-23T18:40:40.082Z,9.65
2022-12-23T18:43:07.211Z,8.57
2022-12-23T18:45:49.136Z,13.63
2022-12-23T18:48:18.951Z,14.45
2022-12-23T18:50:46.937Z,13.55
2022-12-23T18:53:24.656Z,11.10
2022-12-23T18:55:54.372Z,10.48
2022-12-23T18:58:21.565Z,10.25
2022-12-23T19:00:49.878Z,16.42
2022-12-23T19:05:53.102Z,11.02
2022-12-23T19:08:26.347Z,8.95
2022-12-23T19:10:55.561Z,9.40
2022-12-23T19:13:22.700Z,6.57
2022-12-23T19:15:50.001Z,9.75
2022-12-23T19:18:21.480Z,6.85
2022-12-23T19:20:56.912Z,7.47
2022-12-23T19:23:26.480Z,5.53
2022-12-23T19:25:55.476Z,3.92
2022-12-23T19:28:23.763Z,2.90
2022-12-23T19:30:50.619Z,3.10
2022-12-23T19:33:17.389Z,3.00
2022-12-23T19:35:44.244Z,2.35
2022-12-23T19:38:12.484Z,2.13
2022-12-23T19:40:40.004Z,2.55
2022-12-23T19:43:07.376Z,3.25
2022-12-23T19:45:34.519Z,3.38
2022-12-23T19:48:01.401Z,4.28
2022-12-23T19:50:28.434Z,4.30
2022-12-23T19:52:56.612Z,3.67
2022-12-23T19:55:24.066Z,5.05
2022-12-23T19:57:53.621Z,4.68
2022-12-23T20:00:20.334Z,2.53
2022-12-23T20:02:47.096Z,3.88
2022-12-23T20:05:13.705Z,3.00
2022-12-23T20:07:40.894Z,3.10
2022-12-23T20:10:10.741Z,3.75
2022-12-23T20:12:38.711Z,4.05
2022-12-23T20:15:05.823Z,4.10
2022-12-23T20:17:32.370Z,3.42
2022-12-23T20:19:58.905Z,3.63
2022-12-23T20:22:25.529Z,3.63
2022-12-23T20:24:52.111Z,4.15
2022-12-23T20:27:25.916Z,3.10
2022-12-23T20:29:54.730Z,5.25
2022-12-23T20:32:21.368Z,5.82
2022-12-23T20:34:49.949Z,3.45
2022-12-23T20:37:16.902Z,4.20
2022-12-23T20:39:43.457Z,3.75
2022-12-23T20:42:10.143Z,4.03
2022-12-23T20:44:37.620Z,4.63
2022-12-23T20:47:10.240Z,5.10
2022-12-23T20:49:36.805Z,5.93
2022-12-23T20:52:03.768Z,3.67
2022-12-23T20:54:33.653Z,3.33
2022-12-23T20:57:03.910Z,4.18
2022-12-23T20:59:30.669Z,5.70
2022-12-23T21:01:59.057Z,5.60
2022-12-23T21:04:25.871Z,4.68
2022-12-23T21:06:52.333Z,3.90
2022-12-23T21:09:19.288Z,3.22
2022-12-23T21:11:47.327Z,4.18
2022-12-23T21:14:15.038Z,3.97
2022-12-23T21:16:41.797Z,3.65
2022-12-23T21:19:15.600Z,4.00
2022-12-23T21:21:42.515Z,3.50
2022-12-23T21:24:09.853Z,3.80
2022-12-23T21:26:36.522Z,3.38
2022-12-23T21:29:05.480Z,3.45
2022-12-23T21:31:34.431Z,2.17
2022-12-23T21:34:01.474Z,2.38
2022-12-23T21:36:31.094Z,2.65
2022-12-23T21:38:58.706Z,3.55
2022-12-23T21:41:36.065Z,3.60
2022-12-23T21:44:03.121Z,2.85
2022-12-23T21:46:30.073Z,2.40
2022-12-23T21:48:58.040Z,4.13
2022-12-23T21:51:33.323Z,4.85
2022-12-23T21:54:05.555Z,5.07
2022-12-23T21:56:32.133Z,5.57
2022-12-23T21:59:01.483Z,3.90
2022-12-23T22:01:28.697Z,3.45
2022-12-23T22:03:56.782Z,4.22
2022-12-23T22:06:27.143Z,3.00
2022-12-23T22:08:54.870Z,4.43
2022-12-23T22:11:25.142Z,3.28
2022-12-23T22:13:52.088Z,4.10
2022-12-23T22:16:21.841Z,2.95
2022-12-23T22:18:50.969Z,2.15
2022-12-23T22:21:20.028Z,3.05
2022-12-23T22:23:47.619Z,2.78
2022-12-23T22:26:23.876Z,3.38
2022-12-23T22:28:51.729Z,3.88
2022-12-23T22:31:53.095Z,2.47
2022-12-23T22:34:22.516Z,2.50
2022-12-23T22:36:51.068Z,2.22
2022-12-23T22:39:21.485Z,2.72
2022-12-23T22:41:50.626Z,3.55
2022-12-23T22:44:18.064Z,4.50
2022-12-23T22:46:48.005Z,3.58
2022-12-23T22:49:15.399Z,4.97
2022-12-23T22:51:43.043Z,4.63
2022-12-23T22:54:09.812Z,3.88
2022-12-23T22:56:36.782Z,3.38
2022-12-23T22:59:04.750Z,4.35
2022-12-23T23:01:34.691Z,4.70
2022-12-23T23:04:02.859Z,3.33
2022-12-23T23:06:32.535Z,3.55
2022-12-23T23:08:59.844Z,5.90
2022-12-23T23:11:27.537Z,2.20
2022-12-23T23:13:54.916Z,4.82
2022-12-23T23:16:21.954Z,3.83
2022-12-23T23:18:49.026Z,3.70
2022-12-23T23:21:15.573Z,3.13
2022-12-23T23:23:42.162Z,3.90
2022-12-23T23:26:10.299Z,4.13
2022-12-23T23:28:39.258Z,4.15
2022-12-23T23:31:39.665Z,3.80
2022-12-23T23:33:52.775Z,4.93
2022-12-23T23:36:19.491Z,2.95
2022-12-23T23:38:46.110Z,3.83
2022-12-23T23:41:15.036Z,3.30
2022-12-23T23:43:45.327Z,3.17
2022-12-23T23:46:11.837Z,3.70
2022-12-23T23:48:39.433Z,4.15
2022-12-23T23:51:06.655Z,4.85
2022-12-23T23:53:33.191Z,4.85
2022-12-23T23:56:05.397Z,4.13
2022-12-23T23:58:32.127Z,4.22
